sensor_id;sensor_type;location;lat;lon;timestamp;P1;durP1;ratioP1;P2;durP2;ratioP2
12110;SDS011;6119;52.372;8.990;2022-09-09T00:00:24;1.60;;;1.50;;
12110;SDS011;6119;52.372;8.990;2022-09-09T00:03:17;3.13;;;1.63;;
12110;SDS011;6119;52.372;8.990;2022-09-09T00:06:08;2.87;;;1.53;;
12110;SDS011;6119;52.372;8.990;2022-09-09T00:09:04;2.40;;;1.50;;
12110;SDS011;6119;52.372;8.990;2022-09-09T00:11:58;2.83;;;1.30;;
12110;SDS011;6119;52.372;8.990;2022-09-09T00:14:51;3.40;;;1.30;;
12110;SDS011;6119;52.372;8.990;2022-09-09T00:17:42;1.40;;;1.30;;
12110;SDS011;6119;52.372;8.990;2022-09-09T00:20:35;2.27;;;1.53;;
12110;SDS011;6119;52.372;8.990;2022-09-09T00:23:27;1.93;;;1.47;;
12110;SDS011;6119;52.372;8.990;2022-09-09T00:26:18;3.27;;;1.73;;
12110;SDS011;6119;52.372;8.990;2022-09-09T00:29:10;3.60;;;1.50;;
12110;SDS011;6119;52.372;8.990;2022-09-09T00:32:09;4.83;;;1.93;;
12110;SDS011;6119;52.372;8.990;2022-09-09T00:34:59;4.23;;;1.90;;
12110;SDS011;6119;52.372;8.990;2022-09-09T00:37:52;1.80;;;1.60;;
12110;SDS011;6119;52.372;8.990;2022-09-09T00:40:45;1.70;;;1.13;;
12110;SDS011;6119;52.372;8.990;2022-09-09T00:43:36;1.50;;;1.40;;
12110;SDS011;6119;52.372;8.990;2022-09-09T00:49:42;4.77;;;1.47;;
12110;SDS011;6119;52.372;8.990;2022-09-09T00:52:38;3.67;;;1.30;;
12110;SDS011;6119;52.372;8.990;2022-09-09T00:55:36;1.70;;;1.20;;
12110;SDS011;6119;52.372;8.990;2022-09-09T00:58:29;1.90;;;1.20;;
12110;SDS011;6119;52.372;8.990;2022-09-09T01:01:16;2.33;;;1.30;;
12110;SDS011;6119;52.372;8.990;2022-09-09T01:04:03;1.97;;;1.20;;
12110;SDS011;6119;52.372;8.990;2022-09-09T01:06:55;1.53;;;1.13;;
12110;SDS011;6119;52.372;8.990;2022-09-09T01:09:54;2.50;;;1.27;;
12110;SDS011;6119;52.372;8.990;2022-09-09T01:12:44;2.13;;;1.10;;
12110;SDS011;6119;52.372;8.990;2022-09-09T01:15:34;2.07;;;1.37;;
12110;SDS011;6119;52.372;8.990;2022-09-09T01:18:25;2.47;;;1.30;;
12110;SDS011;6119;52.372;8.990;2022-09-09T01:21:16;4.53;;;2.37;;
12110;SDS011;6119;52.372;8.990;2022-09-09T01:24:12;1.87;;;1.30;;
12110;SDS011;6119;52.372;8.990;2022-09-09T01:27:05;5.00;;;1.23;;
12110;SDS011;6119;52.372;8.990;2022-09-09T01:29:53;1.83;;;1.07;;
12110;SDS011;6119;52.372;8.990;2022-09-09T01:32:41;3.87;;;1.20;;
12110;SDS011;6119;52.372;8.990;2022-09-09T01:35:31;2.37;;;1.67;;
12110;SDS011;6119;52.372;8.990;2022-09-09T01:38:25;4.33;;;1.33;;
12110;SDS011;6119;52.372;8.990;2022-09-09T01:41:13;3.40;;;1.10;;
12110;SDS011;6119;52.372;8.990;2022-09-09T01:44:01;2.10;;;1.20;;
12110;SDS011;6119;52.372;8.990;2022-09-09T01:46:49;4.30;;;1.30;;
12110;SDS011;6119;52.372;8.990;2022-09-09T01:49:35;1.87;;;1.07;;
12110;SDS011;6119;52.372;8.990;2022-09-09T01:52:22;2.93;;;1.30;;
12110;SDS011;6119;52.372;8.990;2022-09-09T01:55:09;1.10;;;1.00;;
12110;SDS011;6119;52.372;8.990;2022-09-09T01:58:01;4.77;;;1.20;;
12110;SDS011;6119;52.372;8.990;2022-09-09T02:01:08;2.77;;;1.73;;
12110;SDS011;6119;52.372;8.990;2022-09-09T02:04:04;2.47;;;1.20;;
12110;SDS011;6119;52.372;8.990;2022-09-09T02:07:00;3.73;;;1.30;;
12110;SDS011;6119;52.372;8.990;2022-09-09T02:09:47;4.00;;;1.13;;
12110;SDS011;6119;52.372;8.990;2022-09-09T02:12:43;1.13;;;1.00;;
12110;SDS011;6119;52.372;8.990;2022-09-09T02:15:33;1.83;;;1.03;;
12110;SDS011;6119;52.372;8.990;2022-09-09T02:18:26;6.33;;;1.40;;
12110;SDS011;6119;52.372;8.990;2022-09-09T02:21:16;2.77;;;1.17;;
12110;SDS011;6119;52.372;8.990;2022-09-09T02:24:04;3.17;;;1.17;;
12110;SDS011;6119;52.372;8.990;2022-09-09T02:26:54;4.60;;;1.40;;
12110;SDS011;6119;52.372;8.990;2022-09-09T02:29:44;4.27;;;1.23;;
12110;SDS011;6119;52.372;8.990;2022-09-09T02:32:32;1.30;;;1.20;;
12110;SDS011;6119;52.372;8.990;2022-09-09T02:35:23;3.20;;;1.50;;
12110;SDS011;6119;52.372;8.990;2022-09-09T02:38:12;1.53;;;1.00;;
12110;SDS011;6119;52.372;8.990;2022-09-09T02:41:00;2.23;;;1.30;;
12110;SDS011;6119;52.372;8.990;2022-09-09T02:43:49;2.77;;;1.27;;
12110;SDS011;6119;52.372;8.990;2022-09-09T02:46:36;2.00;;;0.90;;
12110;SDS011;6119;52.372;8.990;2022-09-09T02:49:37;4.33;;;1.60;;
12110;SDS011;6119;52.372;8.990;2022-09-09T02:52:32;1.47;;;1.20;;
12110;SDS011;6119;52.372;8.990;2022-09-09T02:55:31;3.27;;;1.13;;
12110;SDS011;6119;52.372;8.990;2022-09-09T02:58:23;3.10;;;1.43;;
12110;SDS011;6119;52.372;8.990;2022-09-09T03:01:11;2.73;;;1.40;;
12110;SDS011;6119;52.372;8.990;2022-09-09T03:03:59;2.43;;;1.33;;
12110;SDS011;6119;52.372;8.990;2022-09-09T03:06:45;1.70;;;1.33;;
12110;SDS011;6119;52.372;8.990;2022-09-09T03:09:33;4.00;;;1.47;;
12110;SDS011;6119;52.372;8.990;2022-09-09T03:12:20;2.47;;;1.20;;
12110;SDS011;6119;52.372;8.990;2022-09-09T03:15:07;2.70;;;1.20;;
12110;SDS011;6119;52.372;8.990;2022-09-09T03:17:54;6.03;;;1.60;;
12110;SDS011;6119;52.372;8.990;2022-09-09T03:20:41;3.53;;;1.40;;
12110;SDS011;6119;52.372;8.990;2022-09-09T03:23:28;1.90;;;1.37;;
12110;SDS011;6119;52.372;8.990;2022-09-09T03:26:16;4.23;;;1.40;;
12110;SDS011;6119;52.372;8.990;2022-09-09T03:29:03;3.20;;;1.10;;
12110;SDS011;6119;52.372;8.990;2022-09-09T03:31:51;2.10;;;1.40;;
12110;SDS011;6119;52.372;8.990;2022-09-09T03:34:38;4.03;;;1.20;;
12110;SDS011;6119;52.372;8.990;2022-09-09T03:37:25;2.07;;;1.43;;
12110;SDS011;6119;52.372;8.990;2022-09-09T03:40:11;2.30;;;1.20;;
12110;SDS011;6119;52.372;8.990;2022-09-09T03:43:00;1.90;;;1.40;;
12110;SDS011;6119;52.372;8.990;2022-09-09T03:45:46;2.07;;;1.57;;
12110;SDS011;6119;52.372;8.990;2022-09-09T03:48:34;4.00;;;1.53;;
12110;SDS011;6119;52.372;8.990;2022-09-09T03:51:21;3.83;;;1.30;;
12110;SDS011;6119;52.372;8.990;2022-09-09T03:54:07;2.73;;;1.27;;
12110;SDS011;6119;52.372;8.990;2022-09-09T03:56:54;2.70;;;1.40;;
12110;SDS011;6119;52.372;8.990;2022-09-09T03:59:42;2.20;;;1.13;;
12110;SDS011;6119;52.372;8.990;2022-09-09T04:02:29;3.77;;;1.53;;
12110;SDS011;6119;52.372;8.990;2022-09-09T04:05:16;3.07;;;1.47;;
12110;SDS011;6119;52.372;8.990;2022-09-09T04:08:02;4.17;;;1.27;;
12110;SDS011;6119;52.372;8.990;2022-09-09T04:10:49;2.88;;;1.55;;
12110;SDS011;6119;52.372;8.990;2022-09-09T04:13:36;4.13;;;1.50;;
12110;SDS011;6119;52.372;8.990;2022-09-09T04:16:25;2.83;;;1.37;;
12110;SDS011;6119;52.372;8.990;2022-09-09T04:19:12;2.50;;;1.30;;
12110;SDS011;6119;52.372;8.990;2022-09-09T04:21:59;3.07;;;1.40;;
12110;SDS011;6119;52.372;8.990;2022-09-09T04:24:45;4.57;;;1.63;;
12110;SDS011;6119;52.372;8.990;2022-09-09T04:27:33;3.57;;;1.43;;
12110;SDS011;6119;52.372;8.990;2022-09-09T04:30:19;3.17;;;1.50;;
12110;SDS011;6119;52.372;8.990;2022-09-09T04:33:07;5.33;;;1.70;;
12110;SDS011;6119;52.372;8.990;2022-09-09T04:35:54;1.57;;;1.47;;
12110;SDS011;6119;52.372;8.990;2022-09-09T04:38:41;2.43;;;1.70;;
12110;SDS011;6119;52.372;8.990;2022-09-09T04:41:29;3.83;;;1.60;;
12110;SDS011;6119;52.372;8.990;2022-09-09T04:44:16;1.93;;;1.40;;
12110;SDS011;6119;52.372;8.990;2022-09-09T04:47:02;1.50;;;1.33;;
12110;SDS011;6119;52.372;8.990;2022-09-09T04:49:50;1.90;;;1.60;;
12110;SDS011;6119;52.372;8.990;2022-09-09T04:52:39;1.80;;;1.40;;
12110;SDS011;6119;52.372;8.990;2022-09-09T04:55:25;5.90;;;1.80;;
12110;SDS011;6119;52.372;8.990;2022-09-09T04:58:12;2.10;;;1.47;;
12110;SDS011;6119;52.372;8.990;2022-09-09T05:01:05;2.83;;;1.60;;
12110;SDS011;6119;52.372;8.990;2022-09-09T05:03:53;1.37;;;1.27;;
12110;SDS011;6119;52.372;8.990;2022-09-09T05:06:41;2.23;;;1.33;;
12110;SDS011;6119;52.372;8.990;2022-09-09T05:09:27;2.87;;;1.60;;
12110;SDS011;6119;52.372;8.990;2022-09-09T05:12:15;6.87;;;1.73;;
12110;SDS011;6119;52.372;8.990;2022-09-09T05:15:02;3.70;;;1.50;;
12110;SDS011;6119;52.372;8.990;2022-09-09T05:17:49;1.67;;;1.40;;
12110;SDS011;6119;52.372;8.990;2022-09-09T05:20:37;3.70;;;1.53;;
12110;SDS011;6119;52.372;8.990;2022-09-09T05:23:24;2.27;;;1.40;;
12110;SDS011;6119;52.372;8.990;2022-09-09T05:26:11;3.23;;;1.77;;
12110;SDS011;6119;52.372;8.990;2022-09-09T05:29:02;6.63;;;1.53;;
12110;SDS011;6119;52.372;8.990;2022-09-09T05:31:49;2.07;;;1.63;;
12110;SDS011;6119;52.372;8.990;2022-09-09T05:34:35;3.53;;;1.77;;
12110;SDS011;6119;52.372;8.990;2022-09-09T05:37:22;1.57;;;1.47;;
12110;SDS011;6119;52.372;8.990;2022-09-09T05:40:10;2.97;;;1.33;;
12110;SDS011;6119;52.372;8.990;2022-09-09T05:42:59;5.43;;;1.67;;
12110;SDS011;6119;52.372;8.990;2022-09-09T05:45:47;5.07;;;1.97;;
12110;SDS011;6119;52.372;8.990;2022-09-09T05:48:34;3.17;;;1.53;;
12110;SDS011;6119;52.372;8.990;2022-09-09T05:51:23;3.07;;;1.60;;
12110;SDS011;6119;52.372;8.990;2022-09-09T05:54:11;5.27;;;1.40;;
12110;SDS011;6119;52.372;8.990;2022-09-09T05:57:01;2.10;;;1.40;;
12110;SDS011;6119;52.372;8.990;2022-09-09T05:59:48;4.20;;;1.30;;
12110;SDS011;6119;52.372;8.990;2022-09-09T06:02:34;4.70;;;1.90;;
12110;SDS011;6119;52.372;8.990;2022-09-09T06:05:24;4.10;;;1.70;;
12110;SDS011;6119;52.372;8.990;2022-09-09T06:08:11;4.13;;;1.70;;
12110;SDS011;6119;52.372;8.990;2022-09-09T06:11:00;4.40;;;1.53;;
12110;SDS011;6119;52.372;8.990;2022-09-09T06:13:50;3.93;;;1.33;;
12110;SDS011;6119;52.372;8.990;2022-09-09T06:16:38;3.37;;;1.50;;
12110;SDS011;6119;52.372;8.990;2022-09-09T06:19:27;3.00;;;1.47;;
12110;SDS011;6119;52.372;8.990;2022-09-09T06:22:15;3.30;;;1.57;;
12110;SDS011;6119;52.372;8.990;2022-09-09T06:25:02;2.63;;;1.47;;
12110;SDS011;6119;52.372;8.990;2022-09-09T06:27:49;5.80;;;1.50;;
12110;SDS011;6119;52.372;8.990;2022-09-09T06:30:37;2.63;;;1.70;;
12110;SDS011;6119;52.372;8.990;2022-09-09T06:33:23;6.10;;;1.93;;
12110;SDS011;6119;52.372;8.990;2022-09-09T06:36:11;4.43;;;1.77;;
12110;SDS011;6119;52.372;8.990;2022-09-09T06:38:59;5.43;;;1.87;;
12110;SDS011;6119;52.372;8.990;2022-09-09T06:41:46;2.30;;;1.93;;
12110;SDS011;6119;52.372;8.990;2022-09-09T06:44:33;2.33;;;1.53;;
12110;SDS011;6119;52.372;8.990;2022-09-09T06:47:21;2.20;;;1.60;;
12110;SDS011;6119;52.372;8.990;2022-09-09T06:50:08;3.90;;;1.43;;
12110;SDS011;6119;52.372;8.990;2022-09-09T06:52:55;1.87;;;1.67;;
12110;SDS011;6119;52.372;8.990;2022-09-09T06:55:41;3.47;;;1.70;;
12110;SDS011;6119;52.372;8.990;2022-09-09T06:58:29;4.20;;;2.03;;
12110;SDS011;6119;52.372;8.990;2022-09-09T07:01:18;3.67;;;1.93;;
12110;SDS011;6119;52.372;8.990;2022-09-09T07:04:06;4.37;;;1.80;;
12110;SDS011;6119;52.372;8.990;2022-09-09T07:06:55;4.07;;;1.87;;
12110;SDS011;6119;52.372;8.990;2022-09-09T07:09:42;4.20;;;1.97;;
12110;SDS011;6119;52.372;8.990;2022-09-09T07:12:30;3.37;;;1.87;;
12110;SDS011;6119;52.372;8.990;2022-09-09T07:15:16;2.73;;;1.73;;
12110;SDS011;6119;52.372;8.990;2022-09-09T07:18:03;3.23;;;1.87;;
12110;SDS011;6119;52.372;8.990;2022-09-09T07:20:54;3.80;;;1.70;;
12110;SDS011;6119;52.372;8.990;2022-09-09T07:23:42;7.00;;;1.73;;
12110;SDS011;6119;52.372;8.990;2022-09-09T07:26:29;3.77;;;1.93;;
12110;SDS011;6119;52.372;8.990;2022-09-09T07:29:16;4.33;;;1.57;;
12110;SDS011;6119;52.372;8.990;2022-09-09T07:32:05;1.53;;;1.30;;
12110;SDS011;6119;52.372;8.990;2022-09-09T07:34:51;3.13;;;1.70;;
12110;SDS011;6119;52.372;8.990;2022-09-09T07:37:39;3.90;;;1.43;;
12110;SDS011;6119;52.372;8.990;2022-09-09T07:40:26;4.20;;;1.73;;
12110;SDS011;6119;52.372;8.990;2022-09-09T07:43:13;1.30;;;1.20;;
12110;SDS011;6119;52.372;8.990;2022-09-09T07:46:03;4.97;;;1.43;;
12110;SDS011;6119;52.372;8.990;2022-09-09T07:48:52;3.00;;;1.70;;
12110;SDS011;6119;52.372;8.990;2022-09-09T07:51:40;2.57;;;1.63;;
12110;SDS011;6119;52.372;8.990;2022-09-09T07:54:29;6.47;;;1.60;;
12110;SDS011;6119;52.372;8.990;2022-09-09T07:57:17;3.40;;;1.90;;
12110;SDS011;6119;52.372;8.990;2022-09-09T08:00:03;4.03;;;1.80;;
12110;SDS011;6119;52.372;8.990;2022-09-09T08:02:50;4.97;;;1.57;;
12110;SDS011;6119;52.372;8.990;2022-09-09T08:05:39;3.73;;;1.57;;
12110;SDS011;6119;52.372;8.990;2022-09-09T08:08:25;4.40;;;1.60;;
12110;SDS011;6119;52.372;8.990;2022-09-09T08:11:14;3.03;;;1.70;;
12110;SDS011;6119;52.372;8.990;2022-09-09T08:14:01;3.57;;;1.50;;
12110;SDS011;6119;52.372;8.990;2022-09-09T08:16:48;7.40;;;1.80;;
12110;SDS011;6119;52.372;8.990;2022-09-09T08:19:39;2.70;;;1.60;;
12110;SDS011;6119;52.372;8.990;2022-09-09T08:22:25;6.50;;;1.80;;
12110;SDS011;6119;52.372;8.990;2022-09-09T08:25:12;4.37;;;1.87;;
12110;SDS011;6119;52.372;8.990;2022-09-09T08:28:00;5.37;;;1.57;;
12110;SDS011;6119;52.372;8.990;2022-09-09T08:30:47;7.87;;;1.93;;
12110;SDS011;6119;52.372;8.990;2022-09-09T08:33:35;5.83;;;1.57;;
12110;SDS011;6119;52.372;8.990;2022-09-09T08:36:23;4.10;;;1.53;;
12110;SDS011;6119;52.372;8.990;2022-09-09T08:39:12;2.40;;;1.63;;
12110;SDS011;6119;52.372;8.990;2022-09-09T08:42:03;6.33;;;1.70;;
12110;SDS011;6119;52.372;8.990;2022-09-09T08:45:21;2.13;;;1.37;;
12110;SDS011;6119;52.372;8.990;2022-09-09T08:48:21;7.30;;;1.80;;
12110;SDS011;6119;52.372;8.990;2022-09-09T08:51:23;4.33;;;1.57;;
12110;SDS011;6119;52.372;8.990;2022-09-09T08:54:11;5.20;;;1.50;;
12110;SDS011;6119;52.372;8.990;2022-09-09T08:56:58;3.47;;;1.40;;
12110;SDS011;6119;52.372;8.990;2022-09-09T08:59:45;2.73;;;1.40;;
12110;SDS011;6119;52.372;8.990;2022-09-09T09:02:34;5.83;;;1.63;;
12110;SDS011;6119;52.372;8.990;2022-09-09T09:05:30;5.00;;;1.40;;
12110;SDS011;6119;52.372;8.990;2022-09-09T09:08:25;2.57;;;1.30;;
12110;SDS011;6119;52.372;8.990;2022-09-09T09:11:17;3.23;;;1.30;;
12110;SDS011;6119;52.372;8.990;2022-09-09T09:14:03;3.07;;;1.30;;
12110;SDS011;6119;52.372;8.990;2022-09-09T09:16:56;5.83;;;1.63;;
12110;SDS011;6119;52.372;8.990;2022-09-09T09:19:47;6.87;;;1.80;;
12110;SDS011;6119;52.372;8.990;2022-09-09T09:22:37;3.03;;;1.60;;
12110;SDS011;6119;52.372;8.990;2022-09-09T09:25:31;3.30;;;1.50;;
12110;SDS011;6119;52.372;8.990;2022-09-09T09:28:21;4.93;;;1.43;;
12110;SDS011;6119;52.372;8.990;2022-09-09T09:31:11;3.43;;;1.60;;
12110;SDS011;6119;52.372;8.990;2022-09-09T09:33:58;5.17;;;1.37;;
12110;SDS011;6119;52.372;8.990;2022-09-09T09:36:52;8.27;;;1.83;;
12110;SDS011;6119;52.372;8.990;2022-09-09T09:39:41;4.77;;;1.77;;
12110;SDS011;6119;52.372;8.990;2022-09-09T09:42:48;3.67;;;1.40;;
12110;SDS011;6119;52.372;8.990;2022-09-09T09:45:41;2.60;;;1.20;;
12110;SDS011;6119;52.372;8.990;2022-09-09T09:48:44;3.50;;;1.27;;
12110;SDS011;6119;52.372;8.990;2022-09-09T09:51:41;5.27;;;1.83;;
12110;SDS011;6119;52.372;8.990;2022-09-09T09:54:29;7.10;;;1.33;;
12110;SDS011;6119;52.372;8.990;2022-09-09T09:57:18;4.50;;;1.40;;
12110;SDS011;6119;52.372;8.990;2022-09-09T10:00:12;3.50;;;1.50;;
12110;SDS011;6119;52.372;8.990;2022-09-09T10:03:01;4.43;;;1.47;;
12110;SDS011;6119;52.372;8.990;2022-09-09T10:06:05;3.63;;;1.70;;
12110;SDS011;6119;52.372;8.990;2022-09-09T10:08:52;2.13;;;1.20;;
12110;SDS011;6119;52.372;8.990;2022-09-09T10:11:43;5.60;;;1.43;;
12110;SDS011;6119;52.372;8.990;2022-09-09T10:14:36;5.03;;;2.03;;
12110;SDS011;6119;52.372;8.990;2022-09-09T10:17:32;3.10;;;2.00;;
12110;SDS011;6119;52.372;8.990;2022-09-09T10:20:28;6.27;;;2.00;;
12110;SDS011;6119;52.372;8.990;2022-09-09T10:23:27;4.60;;;1.60;;
12110;SDS011;6119;52.372;8.990;2022-09-09T10:26:27;5.93;;;1.93;;
12110;SDS011;6119;52.372;8.990;2022-09-09T10:29:26;2.47;;;1.40;;
12110;SDS011;6119;52.372;8.990;2022-09-09T10:32:40;5.60;;;1.50;;
12110;SDS011;6119;52.372;8.990;2022-09-09T10:35:31;5.47;;;1.90;;
12110;SDS011;6119;52.372;8.990;2022-09-09T10:38:22;3.37;;;1.57;;
12110;SDS011;6119;52.372;8.990;2022-09-09T10:41:16;3.00;;;1.57;;
12110;SDS011;6119;52.372;8.990;2022-09-09T10:44:16;1.70;;;1.00;;
12110;SDS011;6119;52.372;8.990;2022-09-09T10:47:17;4.60;;;1.17;;
12110;SDS011;6119;52.372;8.990;2022-09-09T10:50:18;3.40;;;1.23;;
12110;SDS011;6119;52.372;8.990;2022-09-09T10:53:50;5.80;;;1.20;;
12110;SDS011;6119;52.372;8.990;2022-09-09T10:56:42;3.67;;;1.20;;
12110;SDS011;6119;52.372;8.990;2022-09-09T10:59:36;2.40;;;0.87;;
12110;SDS011;6119;52.372;8.990;2022-09-09T11:02:29;1.10;;;0.90;;
12110;SDS011;6119;52.372;8.990;2022-09-09T11:05:17;2.80;;;1.13;;
12110;SDS011;6119;52.372;8.990;2022-09-09T11:08:06;3.87;;;1.23;;
12110;SDS011;6119;52.372;8.990;2022-09-09T11:10:58;2.60;;;1.47;;
12110;SDS011;6119;52.372;8.990;2022-09-09T11:13:49;3.57;;;1.20;;
12110;SDS011;6119;52.372;8.990;2022-09-09T11:16:42;1.93;;;1.23;;
12110;SDS011;6119;52.372;8.990;2022-09-09T11:19:36;2.33;;;1.20;;
12110;SDS011;6119;52.372;8.990;2022-09-09T11:22:26;4.23;;;1.33;;
12110;SDS011;6119;52.372;8.990;2022-09-09T11:25:19;3.10;;;1.50;;
12110;SDS011;6119;52.372;8.990;2022-09-09T11:28:14;6.27;;;1.53;;
12110;SDS011;6119;52.372;8.990;2022-09-09T11:31:18;3.17;;;1.20;;
12110;SDS011;6119;52.372;8.990;2022-09-09T11:34:24;3.80;;;1.27;;
12110;SDS011;6119;52.372;8.990;2022-09-09T11:37:38;4.70;;;1.17;;
12110;SDS011;6119;52.372;8.990;2022-09-09T11:40:38;3.50;;;1.00;;
12110;SDS011;6119;52.372;8.990;2022-09-09T11:43:27;2.47;;;1.20;;
12110;SDS011;6119;52.372;8.990;2022-09-09T11:46:17;4.87;;;1.10;;
12110;SDS011;6119;52.372;8.990;2022-09-09T11:49:21;2.60;;;1.00;;
12110;SDS011;6119;52.372;8.990;2022-09-09T11:52:18;1.87;;;0.90;;
12110;SDS011;6119;52.372;8.990;2022-09-09T11:55:09;5.80;;;1.47;;
12110;SDS011;6119;52.372;8.990;2022-09-09T11:57:57;3.67;;;0.93;;
12110;SDS011;6119;52.372;8.990;2022-09-09T12:00:46;3.73;;;1.30;;
12110;SDS011;6119;52.372;8.990;2022-09-09T12:03:35;3.93;;;1.30;;
12110;SDS011;6119;52.372;8.990;2022-09-09T12:06:28;5.63;;;1.27;;
12110;SDS011;6119;52.372;8.990;2022-09-09T12:09:19;1.50;;;1.00;;
12110;SDS011;6119;52.372;8.990;2022-09-09T12:12:24;3.17;;;1.20;;
12110;SDS011;6119;52.372;8.990;2022-09-09T12:15:22;3.60;;;1.00;;
12110;SDS011;6119;52.372;8.990;2022-09-09T12:18:14;3.93;;;1.23;;
12110;SDS011;6119;52.372;8.990;2022-09-09T12:21:08;2.63;;;1.00;;
12110;SDS011;6119;52.372;8.990;2022-09-09T12:24:05;6.77;;;1.70;;
12110;SDS011;6119;52.372;8.990;2022-09-09T12:26:57;4.37;;;1.43;;
12110;SDS011;6119;52.372;8.990;2022-09-09T12:29:50;3.10;;;1.10;;
12110;SDS011;6119;52.372;8.990;2022-09-09T12:32:41;4.70;;;1.30;;
12110;SDS011;6119;52.372;8.990;2022-09-09T12:35:29;5.00;;;1.10;;
12110;SDS011;6119;52.372;8.990;2022-09-09T12:38:17;4.03;;;1.37;;
12110;SDS011;6119;52.372;8.990;2022-09-09T12:41:21;3.83;;;1.30;;
12110;SDS011;6119;52.372;8.990;2022-09-09T12:44:11;1.77;;;1.10;;
12110;SDS011;6119;52.372;8.990;2022-09-09T12:46:58;3.77;;;1.60;;
12110;SDS011;6119;52.372;8.990;2022-09-09T12:49:46;4.63;;;1.30;;
12110;SDS011;6119;52.372;8.990;2022-09-09T12:52:35;6.73;;;1.67;;
12110;SDS011;6119;52.372;8.990;2022-09-09T12:55:25;3.50;;;1.13;;
12110;SDS011;6119;52.372;8.990;2022-09-09T12:58:14;2.77;;;1.17;;
12110;SDS011;6119;52.372;8.990;2022-09-09T13:01:05;2.73;;;1.60;;
12110;SDS011;6119;52.372;8.990;2022-09-09T13:03:53;2.60;;;1.10;;
12110;SDS011;6119;52.372;8.990;2022-09-09T13:06:40;7.57;;;1.20;;
12110;SDS011;6119;52.372;8.990;2022-09-09T13:09:27;3.00;;;1.13;;
12110;SDS011;6119;52.372;8.990;2022-09-09T13:12:14;2.60;;;1.13;;
12110;SDS011;6119;52.372;8.990;2022-09-09T13:15:04;2.27;;;1.10;;
12110;SDS011;6119;52.372;8.990;2022-09-09T13:18:05;6.57;;;1.40;;
12110;SDS011;6119;52.372;8.990;2022-09-09T13:20:57;3.23;;;1.17;;
12110;SDS011;6119;52.372;8.990;2022-09-09T13:23:48;5.33;;;1.50;;
12110;SDS011;6119;52.372;8.990;2022-09-09T13:26:36;2.93;;;1.10;;
12110;SDS011;6119;52.372;8.990;2022-09-09T13:29:24;2.87;;;1.00;;
12110;SDS011;6119;52.372;8.990;2022-09-09T13:32:15;5.43;;;0.93;;
12110;SDS011;6119;52.372;8.990;2022-09-09T13:38:09;2.77;;;1.27;;
12110;SDS011;6119;52.372;8.990;2022-09-09T13:40:59;2.33;;;1.07;;
12110;SDS011;6119;52.372;8.990;2022-09-09T13:43:48;4.80;;;1.20;;
12110;SDS011;6119;52.372;8.990;2022-09-09T13:46:37;2.30;;;1.20;;
12110;SDS011;6119;52.372;8.990;2022-09-09T13:49:27;2.27;;;1.40;;
12110;SDS011;6119;52.372;8.990;2022-09-09T13:52:17;3.50;;;1.20;;
12110;SDS011;6119;52.372;8.990;2022-09-09T13:55:05;4.50;;;1.10;;
12110;SDS011;6119;52.372;8.990;2022-09-09T13:57:52;1.80;;;1.07;;
12110;SDS011;6119;52.372;8.990;2022-09-09T14:00:40;2.17;;;1.00;;
12110;SDS011;6119;52.372;8.990;2022-09-09T14:03:28;4.63;;;1.17;;
12110;SDS011;6119;52.372;8.990;2022-09-09T14:06:14;2.03;;;1.23;;
12110;SDS011;6119;52.372;8.990;2022-09-09T14:09:03;2.00;;;1.10;;
12110;SDS011;6119;52.372;8.990;2022-09-09T14:11:50;4.13;;;1.37;;
12110;SDS011;6119;52.372;8.990;2022-09-09T14:14:36;2.53;;;0.93;;
12110;SDS011;6119;52.372;8.990;2022-09-09T14:17:23;2.33;;;1.17;;
12110;SDS011;6119;52.372;8.990;2022-09-09T14:20:09;2.47;;;1.00;;
12110;SDS011;6119;52.372;8.990;2022-09-09T14:23:00;3.80;;;1.10;;
12110;SDS011;6119;52.372;8.990;2022-09-09T14:25:48;2.03;;;0.80;;
12110;SDS011;6119;52.372;8.990;2022-09-09T14:28:35;2.67;;;1.07;;
12110;SDS011;6119;52.372;8.990;2022-09-09T14:31:38;3.07;;;1.07;;
12110;SDS011;6119;52.372;8.990;2022-09-09T14:34:25;2.43;;;0.97;;
12110;SDS011;6119;52.372;8.990;2022-09-09T14:37:11;3.00;;;1.00;;
12110;SDS011;6119;52.372;8.990;2022-09-09T14:39:58;3.43;;;1.10;;
12110;SDS011;6119;52.372;8.990;2022-09-09T14:42:46;3.87;;;1.20;;
12110;SDS011;6119;52.372;8.990;2022-09-09T14:45:32;2.43;;;1.10;;
12110;SDS011;6119;52.372;8.990;2022-09-09T14:48:22;2.03;;;0.87;;
12110;SDS011;6119;52.372;8.990;2022-09-09T14:51:09;6.57;;;1.20;;
12110;SDS011;6119;52.372;8.990;2022-09-09T14:53:58;4.70;;;1.23;;
12110;SDS011;6119;52.372;8.990;2022-09-09T14:56:46;2.57;;;1.10;;
12110;SDS011;6119;52.372;8.990;2022-09-09T14:59:34;2.87;;;0.97;;
12110;SDS011;6119;52.372;8.990;2022-09-09T15:02:21;1.70;;;1.00;;
12110;SDS011;6119;52.372;8.990;2022-09-09T15:05:08;4.83;;;1.20;;
12110;SDS011;6119;52.372;8.990;2022-09-09T15:07:55;3.87;;;1.30;;
12110;SDS011;6119;52.372;8.990;2022-09-09T15:10:43;1.73;;;1.13;;
12110;SDS011;6119;52.372;8.990;2022-09-09T15:13:31;1.43;;;1.00;;
12110;SDS011;6119;52.372;8.990;2022-09-09T15:16:19;5.33;;;1.33;;
12110;SDS011;6119;52.372;8.990;2022-09-09T15:19:07;2.97;;;1.20;;
12110;SDS011;6119;52.372;8.990;2022-09-09T15:21:54;3.73;;;1.10;;
12110;SDS011;6119;52.372;8.990;2022-09-09T15:24:40;2.33;;;0.97;;
12110;SDS011;6119;52.372;8.990;2022-09-09T15:27:26;3.57;;;1.13;;
12110;SDS011;6119;52.372;8.990;2022-09-09T15:30:16;1.70;;;1.00;;
12110;SDS011;6119;52.372;8.990;2022-09-09T15:33:08;1.10;;;0.93;;
12110;SDS011;6119;52.372;8.990;2022-09-09T15:35:56;1.57;;;0.90;;
12110;SDS011;6119;52.372;8.990;2022-09-09T15:38:43;3.87;;;1.00;;
12110;SDS011;6119;52.372;8.990;2022-09-09T15:41:30;2.87;;;0.90;;
12110;SDS011;6119;52.372;8.990;2022-09-09T15:44:18;2.03;;;1.10;;
12110;SDS011;6119;52.372;8.990;2022-09-09T15:47:04;0.93;;;0.80;;
12110;SDS011;6119;52.372;8.990;2022-09-09T15:49:52;2.53;;;0.90;;
12110;SDS011;6119;52.372;8.990;2022-09-09T15:52:39;1.47;;;1.00;;
12110;SDS011;6119;52.372;8.990;2022-09-09T15:55:25;3.07;;;0.87;;
12110;SDS011;6119;52.372;8.990;2022-09-09T15:58:12;2.57;;;1.00;;
12110;SDS011;6119;52.372;8.990;2022-09-09T16:01:01;1.83;;;1.10;;
12110;SDS011;6119;52.372;8.990;2022-09-09T16:03:49;1.87;;;0.90;;
12110;SDS011;6119;52.372;8.990;2022-09-09T16:06:37;1.57;;;0.80;;
12110;SDS011;6119;52.372;8.990;2022-09-09T16:09:24;1.17;;;0.83;;
12110;SDS011;6119;52.372;8.990;2022-09-09T16:12:11;5.03;;;1.33;;
12110;SDS011;6119;52.372;8.990;2022-09-09T16:14:59;2.70;;;1.03;;
12110;SDS011;6119;52.372;8.990;2022-09-09T16:17:46;1.23;;;0.80;;
12110;SDS011;6119;52.372;8.990;2022-09-09T16:20:32;1.00;;;0.90;;
12110;SDS011;6119;52.372;8.990;2022-09-09T16:23:22;1.80;;;1.00;;
12110;SDS011;6119;52.372;8.990;2022-09-09T16:26:09;3.20;;;1.10;;
12110;SDS011;6119;52.372;8.990;2022-09-09T16:28:58;2.23;;;1.10;;
12110;SDS011;6119;52.372;8.990;2022-09-09T16:31:44;3.70;;;1.10;;
12110;SDS011;6119;52.372;8.990;2022-09-09T16:34:33;2.17;;;1.20;;
12110;SDS011;6119;52.372;8.990;2022-09-09T16:37:19;2.30;;;1.00;;
12110;SDS011;6119;52.372;8.990;2022-09-09T16:40:07;2.60;;;1.03;;
12110;SDS011;6119;52.372;8.990;2022-09-09T16:42:55;0.80;;;0.80;;
12110;SDS011;6119;52.372;8.990;2022-09-09T16:45:42;2.80;;;0.90;;
12110;SDS011;6119;52.372;8.990;2022-09-09T16:48:30;1.67;;;1.10;;
12110;SDS011;6119;52.372;8.990;2022-09-09T16:51:18;1.77;;;0.93;;
12110;SDS011;6119;52.372;8.990;2022-09-09T16:54:09;1.90;;;0.77;;
12110;SDS011;6119;52.372;8.990;2022-09-09T16:56:58;1.50;;;0.83;;
12110;SDS011;6119;52.372;8.990;2022-09-09T16:59:45;1.37;;;1.17;;
12110;SDS011;6119;52.372;8.990;2022-09-09T17:02:32;2.73;;;0.97;;
12110;SDS011;6119;52.372;8.990;2022-09-09T17:05:18;4.60;;;1.13;;
12110;SDS011;6119;52.372;8.990;2022-09-09T17:08:05;3.67;;;1.07;;
12110;SDS011;6119;52.372;8.990;2022-09-09T17:10:51;2.30;;;1.20;;
12110;SDS011;6119;52.372;8.990;2022-09-09T17:13:39;2.60;;;1.10;;
12110;SDS011;6119;52.372;8.990;2022-09-09T17:16:28;2.90;;;1.00;;
12110;SDS011;6119;52.372;8.990;2022-09-09T17:19:16;0.87;;;0.87;;
12110;SDS011;6119;52.372;8.990;2022-09-09T17:22:03;1.10;;;0.90;;
12110;SDS011;6119;52.372;8.990;2022-09-09T17:25:01;4.00;;;1.00;;